createdAt,value
2022-08-10T00:00:59.259Z,15.39
2022-08-10T00:03:25.372Z,15.38
2022-08-10T00:05:54.874Z,15.35
2022-08-10T00:08:23.909Z,15.32
2022-08-10T00:10:54.452Z,15.30
2022-08-10T00:13:21.403Z,15.27
2022-08-10T00:15:53.626Z,15.26
2022-08-10T00:18:35.395Z,15.20
2022-08-10T00:21:06.183Z,15.18
2022-08-10T00:23:32.840Z,15.17
2022-08-10T00:25:59.225Z,15.13
2022-08-10T00:28:25.393Z,15.10
2022-08-10T00:30:51.581Z,15.04
2022-08-10T00:33:17.795Z,15.01
2022-08-10T00:35:43.954Z,14.97
2022-08-10T00:38:10.862Z,15.04
2022-08-10T00:40:38.245Z,15.01
2022-08-10T00:43:05.590Z,14.99
2022-08-10T00:45:31.714Z,14.97
2022-08-10T00:47:57.869Z,14.92
2022-08-10T00:50:24.011Z,14.89
2022-08-10T00:52:50.169Z,14.85
2022-08-10T00:55:16.499Z,14.80
2022-08-10T00:57:42.902Z,14.78
2022-08-10T01:00:10.095Z,14.76
2022-08-10T01:02:36.653Z,14.75
2022-08-10T01:05:08.566Z,14.69
2022-08-10T01:08:01.075Z,14.65
2022-08-10T01:10:51.861Z,14.63
2022-08-10T01:13:36.077Z,14.59
2022-08-10T01:16:20.437Z,14.54
2022-08-10T01:19:01.875Z,14.50
2022-08-10T01:21:53.961Z,14.50
2022-08-10T01:24:38.762Z,14.47
2022-08-10T01:27:19.133Z,14.43
2022-08-10T01:30:04.981Z,14.37
2022-08-10T01:32:38.822Z,14.34
2022-08-10T01:35:17.001Z,14.35
2022-08-10T01:37:52.637Z,14.33
2022-08-10T01:40:23.137Z,14.35
2022-08-10T01:42:51.129Z,14.31
2022-08-10T01:45:19.572Z,14.27
2022-08-10T01:48:06.513Z,14.27
2022-08-10T01:50:59.903Z,14.22
2022-08-10T01:53:41.058Z,14.17
2022-08-10T01:56:09.423Z,14.16
2022-08-10T01:58:37.319Z,14.11
2022-08-10T02:01:04.986Z,14.05
2022-08-10T02:03:31.955Z,14.03
2022-08-10T02:05:59.784Z,13.99
2022-08-10T02:08:28.554Z,13.96
2022-08-10T02:10:57.301Z,13.93
2022-08-10T02:13:24.417Z,13.88
2022-08-10T02:16:02.109Z,13.83
2022-08-10T02:18:30.399Z,13.76
2022-08-10T02:20:59.100Z,13.69
2022-08-10T02:23:29.711Z,13.64
2022-08-10T02:25:58.666Z,13.64
2022-08-10T02:28:30.841Z,13.68
2022-08-10T02:31:01.676Z,13.65
2022-08-10T02:33:29.720Z,13.65
2022-08-10T02:36:00.561Z,13.69
2022-08-10T02:38:58.208Z,13.74
2022-08-10T02:45:12.426Z,13.72
2022-08-10T02:45:23.851Z,13.64
2022-08-10T02:47:50.734Z,13.59
2022-08-10T02:50:28.989Z,13.58
2022-08-10T02:53:54.540Z,13.55
2022-08-10T02:56:11.785Z,13.51
2022-08-10T02:58:55.360Z,13.45
2022-08-10T03:01:25.950Z,13.39
2022-08-10T03:03:59.268Z,13.35
2022-08-10T03:06:29.691Z,13.35
2022-08-10T03:08:59.160Z,13.41
2022-08-10T03:12:35.835Z,13.36
2022-08-10T03:14:16.259Z,13.33
2022-08-10T03:16:42.955Z,13.30
2022-08-10T03:20:34.503Z,13.33
2022-08-10T03:21:58.122Z,13.33
2022-08-10T03:24:30.543Z,13.29
2022-08-10T03:27:00.085Z,13.27
2022-08-10T03:29:26.571Z,13.27
2022-08-10T03:31:54.211Z,13.25
2022-08-10T03:34:32.612Z,13.23
2022-08-10T03:37:00.076Z,13.19
2022-08-10T03:39:26.260Z,13.16
2022-08-10T03:41:56.022Z,13.11
2022-08-10T03:44:25.907Z,13.10
2022-08-10T03:46:54.651Z,13.06
2022-08-10T03:49:22.174Z,13.03
2022-08-10T03:51:51.461Z,13.02
2022-08-10T03:54:18.558Z,13.06
2022-08-10T03:56:45.925Z,13.06
2022-08-10T03:59:14.614Z,13.10
2022-08-10T04:02:44.710Z,13.10
2022-08-10T04:04:31.654Z,13.09
2022-08-10T04:06:58.781Z,13.09
2022-08-10T04:09:55.496Z,13.10
2022-08-10T04:12:21.192Z,13.13
2022-08-10T04:14:51.144Z,13.16
2022-08-10T04:18:02.693Z,13.20
2022-08-10T04:20:14.893Z,13.20
2022-08-10T04:22:43.366Z,13.23
2022-08-10T04:25:12.406Z,13.27
2022-08-10T04:27:38.725Z,13.30
2022-08-10T04:30:05.414Z,13.36
2022-08-10T04:32:32.282Z,13.47
2022-08-10T04:34:59.463Z,13.52
2022-08-10T04:37:26.812Z,13.57
2022-08-10T04:39:53.445Z,13.65
2022-08-10T04:42:19.661Z,13.73
2022-08-10T04:44:45.853Z,13.82
2022-08-10T04:47:11.978Z,13.86
2022-08-10T04:49:56.375Z,13.97
2022-08-10T04:52:23.068Z,14.08
2022-08-10T04:54:51.499Z,14.16
2022-08-10T04:57:17.623Z,14.25
2022-08-10T04:59:43.738Z,14.34
2022-08-10T05:02:22.776Z,14.42
2022-08-10T05:04:55.953Z,14.50
2022-08-10T05:07:22.091Z,14.56
2022-08-10T05:10:02.741Z,14.69
2022-08-10T05:12:35.904Z,14.75
2022-08-10T17:20:31.652Z,30.21
2022-08-10T17:22:57.237Z,30.04
2022-08-10T17:25:48.826Z,29.75
2022-08-10T17:28:33.215Z,29.44
2022-08-10T17:31:24.148Z,29.38
2022-08-10T17:34:11.255Z,29.54
2022-08-10T17:36:40.111Z,29.72
2022-08-10T17:39:11.169Z,29.38
2022-08-10T17:41:38.143Z,28.90
2022-08-10T17:44:05.805Z,28.36
2022-08-10T17:46:36.328Z,27.92
2022-08-10T17:49:07.034Z,27.59
2022-08-10T17:51:34.670Z,27.36
2022-08-10T17:54:07.055Z,27.19
2022-08-10T17:56:34.487Z,26.96
2022-08-10T17:59:16.795Z,26.70
2022-08-10T18:01:58.542Z,26.51
2022-08-10T18:04:34.188Z,26.28
2022-08-10T18:07:08.762Z,26.05
2022-08-10T18:09:49.713Z,25.83
2022-08-10T18:12:29.117Z,25.60
2022-08-10T18:15:04.527Z,25.35
2022-08-10T18:17:38.469Z,25.15
2022-08-10T18:20:07.813Z,25.03
2022-08-10T18:22:39.080Z,24.88
2022-08-10T18:25:07.392Z,24.72
2022-08-10T18:28:01.191Z,24.60
2022-08-10T18:30:21.339Z,24.45
2022-08-10T18:32:54.796Z,24.34
2022-08-10T18:35:34.257Z,24.24
2022-08-10T18:38:02.986Z,24.11
2022-08-10T18:40:36.239Z,23.97
2022-08-10T18:44:10.252Z,23.83
2022-08-10T18:45:57.135Z,23.70
2022-08-10T18:48:33.150Z,23.54
2022-08-10T18:51:05.199Z,23.41
2022-08-10T18:53:50.784Z,23.29
2022-08-10T18:56:47.897Z,23.16
2022-08-10T19:00:07.306Z,23.06
2022-08-10T19:03:11.568Z,22.94
2022-08-10T19:06:13.185Z,22.84
2022-08-10T19:09:47.618Z,22.71
2022-08-10T19:12:31.144Z,22.64
2022-08-10T19:15:09.362Z,22.54
2022-08-10T19:18:03.499Z,22.40
2022-08-10T19:20:33.373Z,22.27
2022-08-10T19:23:26.724Z,22.13
2022-08-10T19:26:41.465Z,22.01
2022-08-10T19:29:03.017Z,21.96
2022-08-10T19:31:54.073Z,21.89
2022-08-10T19:34:37.731Z,21.89
2022-08-10T19:37:32.449Z,21.88
2022-08-10T19:40:44.083Z,21.79
2022-08-10T19:43:59.424Z,21.73
2022-08-10T19:46:31.158Z,21.74
2022-08-10T19:49:07.888Z,21.74
2022-08-10T19:51:49.085Z,21.74
2022-08-10T19:54:25.919Z,21.67
2022-08-10T19:57:11.333Z,21.58
2022-08-10T20:00:17.451Z,21.50
2022-08-10T20:03:34.286Z,21.40
2022-08-10T20:06:20.236Z,21.24
2022-08-10T20:09:12.808Z,21.14
2022-08-10T20:11:58.826Z,21.05
2022-08-10T20:14:36.118Z,21.00
2022-08-10T20:17:45.097Z,20.94
2022-08-10T20:20:31.041Z,20.87
2022-08-10T20:23:18.943Z,20.85
2022-08-10T20:26:18.227Z,20.82
2022-08-10T20:28:57.751Z,20.76
2022-08-10T20:31:28.597Z,20.72
2022-08-10T20:34:01.680Z,20.71
2022-08-10T20:36:34.368Z,20.67
2022-08-10T20:39:14.045Z,20.65
2022-08-10T20:41:56.263Z,20.61
2022-08-10T20:44:31.111Z,20.60
2022-08-10T20:47:10.806Z,20.60
2022-08-10T20:50:01.573Z,20.55
2022-08-10T20:52:29.109Z,20.55
2022-08-10T20:55:02.787Z,20.50
2022-08-10T20:57:59.958Z,20.44
2022-08-10T21:00:50.769Z,20.40
2022-08-10T21:03:46.666Z,20.39
2022-08-10T21:06:42.907Z,20.32
2022-08-10T21:09:32.066Z,20.24
2022-08-10T21:12:16.596Z,20.21
2022-08-10T21:15:00.038Z,20.18
2022-08-10T21:17:43.590Z,20.11
2022-08-10T21:20:42.048Z,20.00
2022-08-10T21:23:15.068Z,19.91
2022-08-10T21:26:29.640Z,19.89
2022-08-10T21:29:21.368Z,19.85
2022-08-10T21:32:12.026Z,19.85
2022-08-10T21:34:56.983Z,19.78
2022-08-10T21:37:39.713Z,19.77
2022-08-10T21:40:40.694Z,19.67
2022-08-10T21:43:59.238Z,19.60
2022-08-10T21:47:09.953Z,19.50
2022-08-10T21:50:27.321Z,19.43
2022-08-10T21:53:19.961Z,19.37
2022-08-10T21:56:20.479Z,19.30
2022-08-10T21:59:16.467Z,19.26
2022-08-10T22:02:28.058Z,19.24
2022-08-10T22:05:22.402Z,19.15
2022-08-10T22:08:12.247Z,19.05
2022-08-10T22:11:01.367Z,18.97
2022-08-10T22:13:47.198Z,18.87
2022-08-10T22:16:47.866Z,18.76
2022-08-10T22:19:36.884Z,18.69
2022-08-10T22:22:28.388Z,18.61
2022-08-10T22:25:29.409Z,18.49
2022-08-10T22:28:17.800Z,18.41
2022-08-10T22:31:30.264Z,18.38
2022-08-10T22:34:54.708Z,18.35
2022-08-10T22:37:55.795Z,18.31
2022-08-10T22:40:44.264Z,18.23
2022-08-10T22:43:40.341Z,18.11
2022-08-10T22:46:34.424Z,18.03
2022-08-10T22:49:00.857Z,18.00
2022-08-10T22:51:45.703Z,17.97
2022-08-10T22:54:37.993Z,17.98
2022-08-10T22:57:24.003Z,17.95
2022-08-10T22:59:51.367Z,17.92
2022-08-10T23:02:30.195Z,17.89
2022-08-10T23:05:09.209Z,17.95
2022-08-10T23:07:43.303Z,17.90
2022-08-10T23:10:12.679Z,17.93
2022-08-10T23:12:47.590Z,17.90
2022-08-10T23:15:42.560Z,17.88
2022-08-10T23:18:31.461Z,17.82
2022-08-10T23:20:59.630Z,17.79
2022-08-10T23:23:27.042Z,17.77
2022-08-10T23:25:57.504Z,17.80
2022-08-10T23:28:39.314Z,17.77
2022-08-10T23:31:13.367Z,17.74
2022-08-10T23:33:40.869Z,17.69
2022-08-10T23:36:33.418Z,17.72
2022-08-10T23:39:26.776Z,17.71
2022-08-10T23:41:52.802Z,17.73
2022-08-10T23:44:21.405Z,17.77
2022-08-10T23:46:48.811Z,17.76
2022-08-10T23:49:15.429Z,17.79
2022-08-10T23:51:56.329Z,17.78
2022-08-10T23:54:24.025Z,17.77
2022-08-10T23:56:54.347Z,17.79
2022-08-10T23:59:24.119Z,17.75
